createdAt,value
2023-05-13T00:00:43.052Z,12.68
2023-05-13T00:03:12.476Z,12.62
2023-05-13T00:05:42.112Z,12.64
2023-05-13T00:08:12.416Z,12.63
2023-05-13T00:10:41.825Z,12.65
2023-05-13T00:13:11.203Z,12.65
2023-05-13T00:15:40.880Z,12.67
2023-05-13T00:18:10.171Z,12.68
2023-05-13T00:20:39.468Z,12.66
2023-05-13T00:23:09.289Z,12.65
2023-05-13T00:25:38.979Z,12.65
2023-05-13T00:28:08.752Z,12.65
2023-05-13T00:30:38.536Z,12.68
2023-05-13T00:33:07.954Z,12.70
2023-05-13T00:35:37.412Z,12.65
2023-05-13T00:38:07.053Z,12.63
2023-05-13T00:40:39.671Z,12.57
2023-05-13T00:43:08.256Z,12.61
2023-05-13T00:45:40.548Z,12.58
2023-05-13T00:48:10.282Z,12.57
2023-05-13T00:50:42.223Z,12.56
2023-05-13T00:53:12.980Z,12.57
2023-05-13T00:55:46.666Z,12.60
2023-05-13T00:58:17.624Z,12.57
2023-05-13T01:01:06.646Z,12.56
2023-05-13T01:03:53.991Z,12.57
2023-05-13T01:06:26.446Z,12.59
2023-05-13T01:09:04.567Z,12.57
2023-05-13T01:11:37.708Z,12.55
2023-05-13T01:14:16.280Z,12.56
2023-05-13T01:16:48.943Z,12.59
2023-05-13T01:19:49.153Z,12.57
2023-05-13T01:22:18.593Z,12.58
2023-05-13T01:24:47.880Z,12.60
2023-05-13T01:27:17.712Z,12.60
2023-05-13T01:29:49.065Z,12.53
2023-05-13T01:32:20.429Z,12.54
2023-05-13T01:34:52.318Z,12.42
2023-05-13T01:37:23.252Z,12.45
2023-05-13T01:39:53.700Z,12.45
2023-05-13T01:42:25.023Z,12.30
2023-05-13T01:44:55.447Z,12.28
2023-05-13T01:47:25.029Z,12.19
2023-05-13T01:49:54.336Z,12.14
2023-05-13T01:52:23.700Z,12.18
2023-05-13T01:54:52.999Z,12.09
2023-05-13T01:57:22.554Z,12.04
2023-05-13T01:59:53.078Z,11.99
2023-05-13T02:02:22.750Z,11.92
2023-05-13T02:04:52.218Z,11.91
2023-05-13T02:07:21.617Z,11.88
2023-05-13T02:09:50.884Z,11.91
2023-05-13T02:12:20.368Z,11.85
2023-05-13T02:14:49.698Z,11.76
2023-05-13T02:17:19.014Z,11.70
2023-05-13T02:19:48.684Z,11.58
2023-05-13T02:22:18.025Z,11.51
2023-05-13T02:24:47.287Z,11.55
2023-05-13T02:27:16.895Z,11.58
2023-05-13T02:29:46.166Z,11.47
2023-05-13T02:32:15.609Z,11.44
2023-05-13T02:34:44.841Z,11.52
2023-05-13T02:37:14.262Z,11.47
2023-05-13T02:39:45.401Z,11.39
2023-05-13T02:42:15.123Z,11.35
2023-05-13T02:44:44.395Z,11.34
2023-05-13T02:47:14.455Z,11.28
2023-05-13T02:49:43.777Z,11.31
2023-05-13T02:52:13.191Z,11.29
2023-05-13T02:54:42.748Z,11.32
2023-05-13T02:57:12.107Z,11.34
2023-05-13T02:59:43.004Z,11.32
2023-05-13T03:02:12.767Z,11.35
2023-05-13T03:04:42.527Z,11.31
2023-05-13T03:07:11.900Z,11.30
2023-05-13T03:09:42.395Z,11.32
2023-05-13T03:12:11.704Z,11.39
2023-05-13T03:14:43.033Z,11.33
2023-05-13T03:17:12.767Z,11.25
2023-05-13T03:19:42.162Z,11.29
2023-05-13T03:22:11.436Z,11.30
2023-05-13T03:24:41.724Z,11.30
2023-05-13T03:27:11.356Z,11.31
2023-05-13T03:29:41.092Z,11.29
2023-05-13T03:32:10.669Z,11.25
2023-05-13T03:34:40.605Z,11.25
2023-05-13T03:37:10.413Z,11.31
2023-05-13T03:39:39.716Z,11.32
2023-05-13T03:42:09.292Z,11.29
2023-05-13T03:44:38.839Z,11.31
2023-05-13T03:47:08.429Z,11.31
2023-05-13T03:49:37.931Z,11.24
2023-05-13T03:52:10.189Z,11.26
2023-05-13T03:54:39.642Z,11.33
2023-05-13T03:57:09.365Z,11.31
2023-05-13T03:59:39.033Z,11.34
2023-05-13T04:02:08.565Z,11.34
2023-05-13T04:04:38.021Z,11.33
2023-05-13T04:07:07.331Z,11.33
2023-05-13T04:09:36.675Z,11.33
2023-05-13T04:12:06.471Z,11.33
2023-05-13T04:14:36.076Z,11.32
2023-05-13T04:17:05.899Z,11.30
2023-05-13T04:19:35.797Z,11.31
2023-05-13T04:22:05.429Z,11.26
2023-05-13T04:24:35.050Z,11.25
2023-05-13T04:27:04.914Z,11.31
2023-05-13T04:29:34.449Z,11.27
2023-05-13T04:32:04.123Z,11.24
2023-05-13T04:34:33.555Z,11.26
2023-05-13T04:37:02.889Z,11.31
2023-05-13T04:39:32.460Z,11.30
2023-05-13T04:42:02.301Z,11.26
2023-05-13T04:44:35.100Z,11.40
2023-05-13T04:47:04.397Z,11.38
2023-05-13T04:49:35.275Z,11.37
2023-05-13T04:52:07.519Z,11.41
2023-05-13T04:54:39.012Z,11.46
2023-05-13T04:57:08.627Z,11.51
2023-05-13T04:59:38.421Z,11.60
2023-05-13T05:02:09.367Z,11.56
2023-05-13T05:04:38.891Z,11.66
2023-05-13T05:07:09.866Z,11.70
2023-05-13T05:09:39.674Z,11.73
2023-05-13T05:12:09.691Z,11.74
2023-05-13T05:14:40.890Z,11.69
2023-05-13T05:17:10.318Z,11.74
2023-05-13T05:19:40.433Z,11.78
2023-05-13T05:22:10.454Z,11.93
2023-05-13T05:24:40.038Z,12.08
2023-05-13T05:27:11.002Z,12.07
2023-05-13T05:29:40.372Z,12.03
2023-05-13T05:32:09.927Z,12.14
2023-05-13T05:34:40.150Z,12.07
2023-05-13T05:37:11.064Z,12.24
2023-05-13T05:39:41.278Z,12.36
2023-05-13T05:42:10.603Z,12.38
2023-05-13T05:44:39.912Z,12.45
2023-05-13T05:47:09.406Z,12.36
2023-05-13T05:49:39.281Z,12.67
2023-05-13T05:52:10.859Z,12.62
2023-05-13T05:54:40.813Z,12.54
2023-05-13T05:57:10.119Z,12.71
2023-05-13T05:59:39.852Z,12.69
2023-05-13T06:02:09.370Z,12.65
2023-05-13T06:04:38.806Z,12.72
2023-05-13T06:07:10.312Z,12.68
2023-05-13T06:09:39.910Z,13.00
2023-05-13T06:12:09.586Z,13.19
2023-05-13T06:14:38.876Z,13.18
2023-05-13T06:17:08.201Z,13.19
2023-05-13T06:19:37.668Z,13.45
2023-05-13T06:22:06.995Z,13.49
2023-05-13T06:24:38.788Z,13.61
2023-05-13T06:27:08.785Z,13.82
2023-05-13T06:29:38.682Z,14.00
2023-05-13T06:32:09.081Z,13.68
2023-05-13T06:34:40.098Z,13.75
2023-05-13T06:37:10.424Z,13.65
2023-05-13T06:39:40.036Z,13.72
2023-05-13T06:42:11.957Z,13.73
2023-05-13T06:44:42.824Z,13.94
2023-05-13T06:47:13.978Z,13.75
2023-05-13T06:49:44.575Z,13.67
2023-05-13T06:52:14.376Z,13.95
2023-05-13T06:54:43.643Z,13.82
2023-05-13T06:57:13.079Z,14.01
2023-05-13T06:59:42.364Z,14.03
2023-05-13T07:02:11.935Z,13.80
2023-05-13T07:04:41.197Z,13.62
2023-05-13T07:07:11.089Z,13.73
2023-05-13T07:09:40.364Z,13.88
2023-05-13T07:12:11.397Z,13.81
2023-05-13T07:14:40.706Z,14.01
2023-05-13T07:17:10.321Z,13.94
2023-05-13T07:19:39.615Z,14.05
2023-05-13T07:22:09.554Z,14.19
2023-05-13T07:24:38.838Z,14.20
2023-05-13T07:27:08.132Z,14.45
2023-05-13T07:29:37.437Z,14.48
2023-05-13T07:32:07.692Z,14.65
2023-05-13T07:34:37.461Z,14.51
2023-05-13T07:37:07.500Z,14.61
2023-05-13T07:39:36.849Z,14.93
2023-05-13T07:42:06.478Z,15.01
2023-05-13T07:44:36.052Z,15.15
2023-05-13T07:47:05.850Z,15.21
2023-05-13T07:49:35.534Z,15.01
2023-05-13T07:52:04.967Z,15.21
2023-05-13T07:54:34.496Z,15.06
2023-05-13T07:57:04.101Z,15.44
2023-05-13T07:59:33.401Z,15.39
2023-05-13T08:02:02.863Z,15.45
2023-05-13T08:04:32.497Z,15.74
2023-05-13T08:07:05.207Z,15.76
2023-05-13T08:09:34.498Z,15.89
2023-05-13T08:12:04.026Z,15.76
2023-05-13T08:14:33.317Z,15.96
2023-05-13T08:17:03.107Z,15.93
2023-05-13T08:19:32.452Z,16.06
2023-05-13T08:22:02.191Z,16.01
2023-05-13T08:24:31.577Z,16.05
2023-05-13T08:27:01.327Z,15.92
2023-05-13T08:29:30.796Z,15.81
2023-05-13T08:32:00.311Z,15.77
2023-05-13T08:34:29.765Z,15.74
2023-05-13T08:36:59.438Z,15.95
2023-05-13T08:39:29.390Z,16.00
2023-05-13T08:42:00.192Z,16.25
2023-05-13T08:44:30.841Z,16.01
2023-05-13T08:47:15.812Z,16.12
2023-05-13T08:49:46.708Z,16.20
2023-05-13T08:52:16.450Z,16.51
2023-05-13T08:54:47.411Z,16.54
2023-05-13T08:57:17.130Z,16.64
2023-05-13T08:59:47.057Z,16.68
2023-05-13T09:02:16.396Z,16.77
2023-05-13T09:04:47.529Z,16.89
2023-05-13T09:07:17.219Z,16.74
2023-05-13T09:09:46.928Z,16.89
2023-05-13T09:12:35.611Z,16.91
2023-05-13T09:15:10.074Z,17.00
2023-05-13T09:17:42.977Z,17.48
2023-05-13T09:20:15.217Z,17.56
2023-05-13T09:22:49.494Z,17.72
2023-05-13T09:25:20.416Z,17.75
2023-05-13T09:27:56.274Z,17.81
2023-05-13T09:30:27.043Z,17.94
2023-05-13T09:33:09.120Z,18.06
2023-05-13T09:35:40.666Z,18.26
2023-05-13T09:38:20.304Z,18.23
2023-05-13T09:40:54.135Z,18.39
2023-05-13T09:43:28.287Z,18.76
2023-05-13T09:46:00.552Z,19.12
2023-05-13T09:48:32.822Z,19.93
2023-05-13T09:51:02.555Z,20.77
2023-05-13T09:53:32.974Z,21.18
2023-05-13T09:56:02.706Z,23.04
2023-05-13T09:58:32.084Z,22.12
2023-05-13T10:01:02.011Z,23.59
2023-05-13T10:03:31.966Z,24.40
2023-05-13T10:06:03.612Z,22.82
2023-05-13T10:08:33.130Z,22.97
2023-05-13T10:11:03.137Z,24.66
2023-05-13T10:13:33.330Z,23.79
2023-05-13T10:16:03.423Z,25.63
2023-05-13T10:18:33.360Z,25.81
2023-05-13T10:21:04.417Z,26.77
2023-05-13T10:23:34.737Z,26.50
2023-05-13T10:26:04.619Z,26.28
2023-05-13T10:28:35.245Z,25.62
2023-05-13T10:31:04.557Z,26.42
2023-05-13T10:33:34.261Z,26.75
2023-05-13T10:36:25.386Z,25.48
2023-05-13T10:39:18.146Z,26.11
2023-05-13T10:41:59.079Z,25.90
2023-05-13T10:44:29.331Z,24.79
2023-05-13T10:46:59.048Z,24.80
2023-05-13T10:49:36.302Z,26.65
2023-05-13T10:52:07.222Z,25.78
2023-05-13T10:54:42.173Z,26.13
2023-05-13T10:57:11.546Z,26.44
2023-05-13T11:00:00.986Z,25.17
2023-05-13T11:02:32.695Z,26.17
2023-05-13T11:05:01.778Z,26.13
2023-05-13T11:07:31.086Z,26.83
2023-05-13T11:10:01.373Z,27.88
2023-05-13T11:12:30.633Z,27.32
2023-05-13T11:15:00.023Z,28.25
2023-05-13T11:17:30.888Z,27.05
2023-05-13T11:20:00.788Z,27.66
2023-05-13T11:22:31.951Z,25.92
2023-05-13T11:25:11.474Z,26.92
2023-05-13T11:27:42.192Z,25.17
2023-05-13T11:30:26.349Z,25.95
2023-05-13T11:32:59.738Z,25.56
2023-05-13T11:35:31.792Z,25.91
2023-05-13T11:38:03.776Z,26.61
2023-05-13T11:40:38.423Z,26.08
2023-05-13T11:43:07.759Z,25.57
2023-05-13T11:45:41.103Z,26.03
2023-05-13T11:48:21.334Z,25.69
2023-05-13T11:50:53.454Z,25.66
2023-05-13T11:53:23.698Z,26.64
2023-05-13T11:55:53.103Z,26.34
2023-05-13T11:58:22.465Z,26.16
2023-05-13T12:00:53.252Z,25.43
2023-05-13T12:03:22.584Z,25.91
2023-05-13T12:05:52.038Z,26.51
2023-05-13T12:08:23.922Z,26.40
2023-05-13T12:10:53.685Z,26.37
2023-05-13T12:13:23.382Z,25.97
2023-05-13T12:15:53.794Z,26.76
2023-05-13T12:18:23.222Z,26.36
2023-05-13T12:20:52.687Z,26.00
2023-05-13T12:23:21.977Z,26.60
2023-05-13T12:25:51.795Z,25.40
2023-05-13T12:28:28.022Z,25.86
2023-05-13T12:31:03.025Z,26.08
2023-05-13T12:33:47.336Z,26.31
2023-05-13T12:36:23.621Z,26.30
2023-05-13T12:39:00.065Z,26.09
2023-05-13T12:41:37.516Z,25.12
2023-05-13T12:44:12.152Z,24.62
2023-05-13T12:46:53.705Z,25.44
2023-05-13T12:49:23.191Z,26.12
2023-05-13T12:51:52.895Z,25.67
2023-05-13T12:54:25.469Z,25.92
2023-05-13T12:56:55.712Z,25.74
2023-05-13T12:59:26.620Z,26.28
2023-05-13T13:01:55.891Z,25.50
2023-05-13T13:04:25.252Z,25.76
2023-05-13T13:06:54.591Z,25.89
2023-05-13T13:09:23.953Z,25.12
2023-05-13T13:11:53.244Z,24.40
2023-05-13T13:14:23.964Z,25.07
2023-05-13T13:16:53.365Z,25.44
2023-05-13T13:19:23.095Z,25.42
2023-05-13T13:21:52.713Z,24.58
2023-05-13T13:24:22.008Z,24.41
2023-05-13T13:26:53.004Z,24.88
2023-05-13T13:29:22.577Z,25.40
2023-05-13T13:31:52.668Z,25.07
2023-05-13T13:34:22.237Z,23.73
2023-05-13T13:36:51.624Z,23.69
2023-05-13T13:39:21.484Z,24.30
2023-05-13T13:41:50.776Z,24.28
2023-05-13T13:44:20.128Z,23.61
2023-05-13T13:46:49.696Z,24.39
2023-05-13T13:49:23.707Z,24.48
2023-05-13T13:51:51.258Z,24.32
2023-05-13T13:54:20.984Z,24.52
2023-05-13T13:56:50.611Z,23.74
2023-05-13T13:59:20.293Z,23.92
2023-05-13T14:01:49.663Z,24.12
2023-05-13T14:04:27.248Z,24.33
2023-05-13T14:06:56.690Z,24.07
2023-05-13T14:09:26.278Z,22.94
2023-05-13T14:11:55.605Z,22.79
2023-05-13T14:14:28.108Z,22.39
2023-05-13T14:16:57.471Z,22.08
2023-05-13T14:19:26.955Z,21.42
2023-05-13T14:21:56.568Z,21.10
2023-05-13T14:24:28.017Z,21.32
2023-05-13T14:26:57.951Z,21.81
2023-05-13T14:29:28.075Z,22.42
2023-05-13T14:31:58.176Z,22.74
2023-05-13T14:34:27.578Z,23.17
2023-05-13T14:36:56.973Z,23.23
2023-05-13T14:39:26.313Z,22.45
2023-05-13T14:41:55.920Z,21.99
2023-05-13T14:44:25.243Z,22.05
2023-05-13T14:46:54.807Z,22.10
2023-05-13T14:49:24.099Z,22.44
2023-05-13T14:51:53.933Z,21.81
2023-05-13T14:54:23.181Z,21.39
2023-05-13T14:56:53.112Z,21.44
2023-05-13T14:59:22.689Z,21.68
2023-05-13T15:01:52.401Z,21.79
2023-05-13T15:04:21.743Z,21.17
2023-05-13T15:06:51.198Z,20.97
2023-05-13T15:09:21.219Z,20.66
2023-05-13T15:11:50.505Z,20.46
2023-05-13T15:14:21.655Z,20.66
2023-05-13T15:16:50.978Z,21.30
2023-05-13T15:19:20.492Z,21.87
2023-05-13T15:21:49.864Z,22.23
2023-05-13T15:24:19.634Z,22.67
2023-05-13T15:26:50.760Z,22.98
2023-05-13T15:29:20.361Z,22.80
2023-05-13T15:31:52.822Z,22.90
2023-05-13T15:34:22.575Z,22.58
2023-05-13T15:36:51.932Z,22.29
2023-05-13T15:39:21.680Z,22.32
2023-05-13T15:41:50.995Z,22.96
2023-05-13T15:44:22.239Z,22.68
2023-05-13T15:46:52.052Z,22.89
2023-05-13T15:49:22.306Z,22.63
2023-05-13T15:51:53.834Z,22.58
2023-05-13T15:54:23.115Z,22.41
2023-05-13T15:56:54.231Z,22.25
2023-05-13T15:59:24.483Z,22.14
2023-05-13T16:01:53.847Z,22.25
2023-05-13T16:04:23.675Z,22.53
2023-05-13T16:06:53.397Z,22.55
2023-05-13T16:09:22.683Z,22.01
2023-05-13T16:11:52.142Z,21.93
2023-05-13T16:14:21.466Z,21.83
2023-05-13T16:16:50.799Z,22.24
2023-05-13T16:19:20.251Z,22.46
2023-05-13T16:21:49.529Z,22.95
2023-05-13T16:24:18.906Z,22.83
2023-05-13T16:26:48.835Z,22.53
2023-05-13T16:29:18.871Z,22.43
2023-05-13T16:31:48.284Z,22.38
2023-05-13T16:34:17.774Z,21.93
2023-05-13T16:36:47.128Z,22.15
2023-05-13T16:39:16.947Z,22.01
2023-05-13T16:41:46.370Z,22.41
2023-05-13T16:44:16.268Z,22.43
2023-05-13T16:46:45.800Z,21.91
2023-05-13T16:49:15.666Z,22.20
2023-05-13T16:51:45.259Z,21.63
2023-05-13T16:54:15.099Z,21.63
2023-05-13T16:56:46.397Z,21.65
2023-05-13T16:59:24.527Z,21.60
2023-05-13T17:01:54.116Z,21.85
2023-05-13T17:04:23.935Z,21.84
2023-05-13T17:06:53.757Z,22.19
2023-05-13T17:09:23.264Z,21.70
2023-05-13T17:11:52.563Z,21.14
2023-05-13T17:14:22.118Z,21.44
2023-05-13T17:16:51.500Z,21.35
2023-05-13T17:19:20.972Z,21.80
2023-05-13T17:21:50.680Z,21.06
2023-05-13T17:24:21.925Z,20.91
2023-05-13T17:26:51.730Z,20.96
2023-05-13T17:29:21.144Z,20.33
2023-05-13T17:31:52.287Z,19.96
2023-05-13T17:34:21.805Z,19.96
2023-05-13T17:36:51.363Z,19.79
2023-05-13T17:39:20.895Z,19.46
2023-05-13T17:41:50.636Z,19.25
2023-05-13T17:44:20.317Z,19.03
2023-05-13T17:46:49.820Z,18.83
2023-05-13T17:49:19.215Z,18.92
2023-05-13T17:51:48.555Z,18.68
2023-05-13T17:54:17.930Z,18.60
2023-05-13T17:56:47.224Z,18.59
2023-05-13T17:59:16.870Z,18.36
2023-05-13T18:01:46.196Z,18.40
2023-05-13T18:04:16.274Z,18.36
2023-05-13T18:06:45.910Z,18.15
2023-05-13T18:09:15.220Z,18.19
2023-05-13T18:11:44.797Z,18.11
2023-05-13T18:14:14.344Z,18.02
2023-05-13T18:16:43.782Z,17.91
2023-05-13T18:19:13.247Z,17.91
2023-05-13T18:21:42.567Z,17.82
2023-05-13T18:24:12.113Z,17.76
2023-05-13T18:26:41.418Z,17.74
2023-05-13T18:29:11.062Z,17.64
2023-05-13T18:31:40.487Z,17.55
2023-05-13T18:34:09.895Z,17.43
2023-05-13T18:36:39.192Z,17.44
2023-05-13T18:39:10.025Z,17.43
2023-05-13T18:41:39.560Z,17.34
2023-05-13T18:44:09.238Z,17.31
2023-05-13T18:46:38.677Z,17.14
2023-05-13T18:49:08.247Z,17.15
2023-05-13T18:51:37.987Z,17.05
2023-05-13T18:54:07.647Z,16.94
2023-05-13T18:56:37.165Z,16.89
2023-05-13T18:59:06.516Z,16.82
2023-05-13T19:01:36.137Z,16.69
2023-05-13T19:04:05.522Z,16.71
2023-05-13T19:06:38.059Z,16.55
2023-05-13T19:09:07.478Z,16.41
2023-05-13T19:11:36.947Z,16.37
2023-05-13T19:14:06.301Z,16.32
2023-05-13T19:16:35.852Z,16.29
2023-05-13T19:19:05.413Z,16.20
2023-05-13T19:21:34.762Z,16.14
2023-05-13T19:24:04.173Z,16.12
2023-05-13T19:26:33.605Z,16.03
2023-05-13T19:29:02.967Z,15.95
2023-05-13T19:31:32.622Z,15.95
2023-05-13T19:34:02.136Z,15.80
2023-05-13T19:36:31.968Z,15.67
2023-05-13T19:39:01.462Z,15.63
2023-05-13T19:41:30.940Z,15.63
2023-05-13T19:44:01.428Z,15.52
2023-05-13T19:46:31.546Z,15.49
2023-05-13T19:49:01.271Z,15.43
2023-05-13T19:51:31.117Z,15.40
2023-05-13T19:54:00.506Z,15.23
2023-05-13T19:56:30.544Z,15.15
2023-05-13T19:58:59.846Z,15.17
2023-05-13T20:01:30.863Z,15.01
2023-05-13T20:04:00.832Z,14.97
2023-05-13T20:06:30.268Z,14.94
2023-05-13T20:09:01.490Z,14.94
2023-05-13T20:11:31.323Z,14.92
2023-05-13T20:14:00.847Z,14.87
2023-05-13T20:16:31.204Z,14.73
2023-05-13T20:19:01.062Z,14.73
2023-05-13T20:21:31.302Z,14.67
2023-05-13T20:24:00.987Z,14.52
2023-05-13T20:26:32.473Z,14.56
2023-05-13T20:29:02.614Z,14.44
2023-05-13T20:31:32.138Z,14.36
2023-05-13T20:34:03.387Z,14.32
2023-05-13T20:36:33.077Z,14.23
2023-05-13T20:39:02.496Z,14.19
2023-05-13T20:41:32.931Z,14.09
2023-05-13T20:44:02.405Z,14.07
2023-05-13T20:46:31.788Z,13.96
2023-05-13T20:49:01.272Z,13.93
2023-05-13T20:51:30.779Z,13.89
2023-05-13T20:54:00.618Z,13.84
2023-05-13T20:56:30.081Z,13.80
2023-05-13T20:59:00.133Z,13.76
2023-05-13T21:01:33.344Z,13.74
2023-05-13T21:04:06.605Z,13.63
2023-05-13T21:06:36.369Z,13.57
2023-05-13T21:09:06.109Z,13.54
2023-05-13T21:11:37.229Z,13.42
2023-05-13T21:14:06.572Z,13.42
2023-05-13T21:16:36.163Z,13.41
2023-05-13T21:19:11.396Z,13.38
2023-05-13T21:21:40.922Z,13.29
2023-05-13T21:24:10.729Z,13.22
2023-05-13T21:26:40.290Z,13.19
2023-05-13T21:29:09.678Z,13.21
2023-05-13T21:31:39.239Z,13.20
2023-05-13T21:34:08.783Z,13.08
2023-05-13T21:36:39.050Z,13.08
2023-05-13T21:39:10.487Z,13.07
2023-05-13T21:41:40.100Z,13.02
2023-05-13T21:44:09.735Z,13.02
2023-05-13T21:46:39.113Z,13.03
2023-05-13T21:49:08.571Z,12.99
2023-05-13T21:51:38.146Z,12.91
2023-05-13T21:54:07.541Z,12.94
2023-05-13T21:56:36.823Z,12.86
2023-05-13T21:59:06.485Z,12.87
2023-05-13T22:01:35.770Z,12.91
2023-05-13T22:04:05.315Z,12.87
2023-05-13T22:06:34.584Z,12.78
2023-05-13T22:09:04.437Z,12.74
2023-05-13T22:11:33.720Z,12.77
2023-05-13T22:14:03.563Z,12.75
2023-05-13T22:16:32.906Z,12.70
2023-05-13T22:19:04.051Z,12.70
2023-05-13T22:21:33.465Z,12.70
2023-05-13T22:24:04.490Z,12.70
2023-05-13T22:26:34.917Z,12.67
2023-05-13T22:29:04.733Z,12.61
2023-05-13T22:31:34.088Z,12.61
2023-05-13T22:34:03.489Z,12.51
2023-05-13T22:36:32.832Z,12.56
2023-05-13T22:39:02.465Z,12.54
2023-05-13T22:41:31.761Z,12.48
2023-05-13T22:44:01.079Z,12.45
2023-05-13T22:46:30.777Z,12.40
2023-05-13T22:49:00.140Z,12.36
2023-05-13T22:51:29.520Z,12.33
2023-05-13T22:53:58.792Z,12.31
2023-05-13T22:56:28.242Z,12.26
2023-05-13T22:58:58.088Z,12.22
2023-05-13T23:01:27.710Z,12.11
2023-05-13T23:03:57.120Z,12.08
2023-05-13T23:06:27.782Z,12.10
2023-05-13T23:08:57.857Z,12.10
2023-05-13T23:11:27.189Z,12.05
2023-05-13T23:13:56.467Z,12.00
2023-05-13T23:16:26.661Z,12.05
2023-05-13T23:18:56.332Z,11.97
2023-05-13T23:21:26.189Z,11.91
2023-05-13T23:23:55.630Z,11.95
2023-05-13T23:26:24.945Z,11.91
2023-05-13T23:28:54.238Z,11.88
2023-05-13T23:31:23.583Z,11.92
2023-05-13T23:33:53.007Z,11.89
2023-05-13T23:36:22.302Z,11.85
2023-05-13T23:38:51.681Z,11.79
2023-05-13T23:41:21.854Z,11.76
2023-05-13T23:43:51.230Z,11.72
2023-05-13T23:46:21.158Z,11.71
2023-05-13T23:48:50.756Z,11.72
2023-05-13T23:51:20.779Z,11.70
2023-05-13T23:53:50.148Z,11.63
2023-05-13T23:56:19.490Z,11.66
2023-05-13T23:58:48.786Z,11.62
